createdAt,value
2022-07-30T00:01:29.043Z,17.83
2022-07-30T00:04:32.523Z,17.72
2022-07-30T00:07:35.698Z,17.71
2022-07-30T00:10:39.180Z,17.64
2022-07-30T00:13:43.249Z,17.44
2022-07-30T00:16:46.009Z,17.41
2022-07-30T00:19:48.908Z,17.47
2022-07-30T00:22:51.710Z,17.45
2022-07-30T00:25:54.511Z,17.49
2022-07-30T00:28:58.894Z,17.40
2022-07-30T00:32:01.734Z,17.43
2022-07-30T00:35:05.034Z,17.46
2022-07-30T00:38:07.785Z,17.40
2022-07-30T00:41:10.537Z,17.42
2022-07-30T00:44:14.596Z,17.51
2022-07-30T00:47:17.327Z,17.50
2022-07-30T00:50:20.137Z,17.55
2022-07-30T00:53:24.507Z,17.60
2022-07-30T00:56:27.412Z,17.50
2022-07-30T00:59:32.288Z,17.33
2022-07-30T01:02:35.079Z,17.43
2022-07-30T01:05:37.821Z,17.49
2022-07-30T01:08:40.673Z,17.51
2022-07-30T01:11:44.131Z,17.57
2022-07-30T01:14:48.312Z,17.57
2022-07-30T01:17:53.281Z,17.53
2022-07-30T01:21:04.319Z,17.47
2022-07-30T01:24:17.706Z,17.39
2022-07-30T01:27:22.911Z,17.50
2022-07-30T01:30:29.290Z,17.60
2022-07-30T01:33:33.732Z,17.41
2022-07-30T01:36:37.773Z,17.30
2022-07-30T01:39:41.139Z,17.23
2022-07-30T01:42:48.160Z,17.17
2022-07-30T01:45:52.898Z,17.17
2022-07-30T01:48:57.789Z,17.16
2022-07-30T01:52:03.835Z,17.22
2022-07-30T01:55:11.513Z,17.36
2022-07-30T01:58:24.088Z,17.22
2022-07-30T02:01:30.129Z,17.23
2022-07-30T02:04:35.412Z,17.23
2022-07-30T02:07:43.516Z,17.30
2022-07-30T02:10:50.193Z,17.42
2022-07-30T02:13:58.249Z,17.39
2022-07-30T02:17:04.271Z,17.32
2022-07-30T02:20:10.494Z,17.29
2022-07-30T02:23:16.662Z,17.34
2022-07-30T02:26:24.140Z,17.36
2022-07-30T02:29:32.227Z,17.39
2022-07-30T02:32:38.426Z,17.39
2022-07-30T02:35:42.201Z,17.32
2022-07-30T02:38:45.596Z,17.27
2022-07-30T02:41:50.538Z,17.14
2022-07-30T02:44:55.736Z,17.05
2022-07-30T02:48:03.128Z,17.10
2022-07-30T02:51:07.644Z,17.21
2022-07-30T02:54:12.612Z,17.30
2022-07-30T02:57:17.905Z,17.24
2022-07-30T03:00:23.041Z,17.26
2022-07-30T03:03:29.413Z,17.33
2022-07-30T03:06:33.848Z,17.39
2022-07-30T03:09:52.046Z,17.26
2022-07-30T03:12:57.592Z,17.24
2022-07-30T03:16:05.797Z,17.21
2022-07-30T03:19:12.298Z,17.08
2022-07-30T03:22:18.418Z,17.17
2022-07-30T03:25:24.586Z,17.14
2022-07-30T03:28:28.933Z,17.06
2022-07-30T03:31:36.502Z,17.04
2022-07-30T03:34:43.810Z,17.02
2022-07-30T03:37:48.321Z,17.02
2022-07-30T03:40:52.114Z,16.93
2022-07-30T03:43:55.837Z,16.91
2022-07-30T03:47:01.521Z,16.90
2022-07-30T03:50:08.406Z,16.85
2022-07-30T03:53:13.106Z,16.77
2022-07-30T03:56:36.588Z,16.82
2022-07-30T03:59:43.039Z,16.80
2022-07-30T04:02:48.492Z,16.92
2022-07-30T04:05:51.205Z,16.94
2022-07-30T04:08:53.932Z,16.83
2022-07-30T04:11:57.446Z,16.80
2022-07-30T04:15:03.434Z,16.68
2022-07-30T04:18:29.298Z,16.67
2022-07-30T04:21:34.492Z,16.61
2022-07-30T04:24:39.750Z,16.62
2022-07-30T04:28:02.766Z,16.53
2022-07-30T04:31:06.379Z,16.60
2022-07-30T04:34:14.674Z,16.52
2022-07-30T04:37:18.986Z,16.53
2022-07-30T04:40:21.906Z,16.36
2022-07-30T04:43:24.645Z,16.16
2022-07-30T04:46:27.447Z,16.12
2022-07-30T04:49:32.559Z,16.06
2022-07-30T04:52:36.834Z,16.15
2022-07-30T04:55:43.765Z,16.19
2022-07-30T04:58:47.052Z,16.15
2022-07-30T05:01:52.351Z,16.18
2022-07-30T05:04:58.558Z,16.15
2022-07-30T05:08:03.652Z,16.19
2022-07-30T05:11:07.209Z,16.24
2022-07-30T05:14:10.081Z,16.22
2022-07-30T05:17:12.829Z,16.22
2022-07-30T05:20:16.997Z,16.25
2022-07-30T05:23:39.983Z,16.23
2022-07-30T05:27:01.282Z,16.21
2022-07-30T05:30:04.906Z,16.21
2022-07-30T05:33:15.755Z,16.17
2022-07-30T05:36:20.662Z,16.22
2022-07-30T05:39:23.390Z,16.27
2022-07-30T05:42:28.884Z,16.32
2022-07-30T05:45:34.076Z,16.15
2022-07-30T05:48:36.879Z,16.18
2022-07-30T05:51:40.938Z,16.12
2022-07-30T05:54:44.706Z,16.13
2022-07-30T05:58:05.846Z,16.10
2022-07-30T06:01:08.867Z,16.25
2022-07-30T06:04:11.734Z,16.25
2022-07-30T06:07:20.734Z,16.22
2022-07-30T06:10:23.562Z,16.18
2022-07-30T06:13:26.785Z,16.17
2022-07-30T06:16:30.946Z,16.19
2022-07-30T06:19:33.727Z,16.19
2022-07-30T06:22:37.769Z,16.19
2022-07-30T06:25:46.244Z,16.17
2022-07-30T06:28:48.986Z,16.21
2022-07-30T06:32:11.952Z,16.24
2022-07-30T06:35:15.354Z,16.29
2022-07-30T06:38:20.093Z,16.35
2022-07-30T06:41:31.476Z,16.34
2022-07-30T06:44:34.987Z,16.37
2022-07-30T06:47:50.040Z,16.31
2022-07-30T06:50:54.298Z,16.37
2022-07-30T06:53:58.431Z,16.28
2022-07-30T06:57:10.000Z,16.18
2022-07-30T07:00:13.402Z,16.16
2022-07-30T07:03:19.717Z,16.16
2022-07-30T07:06:23.336Z,16.17
2022-07-30T07:09:27.420Z,16.17
2022-07-30T07:12:52.890Z,16.15
2022-07-30T07:15:57.881Z,16.21
2022-07-30T07:19:02.330Z,16.22
2022-07-30T07:22:05.348Z,16.23
2022-07-30T07:25:10.499Z,16.24
2022-07-30T07:28:13.746Z,16.26
2022-07-30T07:32:05.528Z,16.27
2022-07-30T07:34:42.634Z,16.28
2022-07-30T07:37:46.196Z,16.37
2022-07-30T07:40:57.163Z,16.35
2022-07-30T07:43:59.972Z,16.46
2022-07-30T07:47:08.239Z,16.49
2022-07-30T07:50:18.159Z,16.60
2022-07-30T07:53:20.895Z,16.53
2022-07-30T07:56:25.913Z,16.58
2022-07-30T07:59:36.210Z,16.56
2022-07-30T08:02:46.341Z,16.69
2022-07-30T08:05:55.856Z,16.71
2022-07-30T08:09:44.647Z,16.66
2022-07-30T08:13:48.440Z,16.70
2022-07-30T08:16:57.574Z,16.61
2022-07-30T08:20:16.836Z,16.62
2022-07-30T08:23:22.242Z,16.70
2022-07-30T08:26:25.490Z,16.83
2022-07-30T08:29:30.113Z,16.90
2022-07-30T08:32:33.279Z,16.96
2022-07-30T08:35:36.452Z,16.91
2022-07-30T08:38:51.280Z,16.91
2022-07-30T08:41:54.934Z,16.97
2022-07-30T08:44:59.244Z,17.07
2022-07-30T08:48:03.039Z,17.04
2022-07-30T08:51:17.319Z,17.09
2022-07-30T08:54:40.551Z,17.16
2022-07-30T08:57:44.365Z,17.09
2022-07-30T09:00:48.469Z,17.10
2022-07-30T09:03:51.225Z,17.04
2022-07-30T09:06:53.994Z,17.12
2022-07-30T09:09:57.455Z,17.18
2022-07-30T09:13:01.767Z,17.10
2022-07-30T09:16:07.986Z,17.10
2022-07-30T09:19:16.203Z,17.11
2022-07-30T09:22:19.662Z,17.14
2022-07-30T09:26:01.008Z,17.16
2022-07-30T09:29:23.649Z,17.24
2022-07-30T09:32:56.445Z,17.25
2022-07-30T09:36:19.417Z,17.28
2022-07-30T09:39:56.313Z,17.21
2022-07-30T09:43:25.947Z,17.25
2022-07-30T09:46:45.446Z,17.46
2022-07-30T09:50:07.465Z,17.44
2022-07-30T09:53:11.912Z,17.52
2022-07-30T09:56:30.224Z,17.35
2022-07-30T09:59:35.439Z,17.13
2022-07-30T10:02:40.328Z,17.03
2022-07-30T10:06:03.627Z,16.92
2022-07-30T10:09:14.103Z,16.54
2022-07-30T10:12:24.158Z,16.53
2022-07-30T10:15:32.583Z,16.36
2022-07-30T10:18:36.315Z,16.29
2022-07-30T10:22:01.050Z,16.14
2022-07-30T10:25:49.228Z,16.23
2022-07-30T10:29:33.465Z,16.16
2022-07-30T10:32:38.850Z,16.21
2022-07-30T10:35:45.221Z,16.26
2022-07-30T10:38:55.038Z,16.11
2022-07-30T10:42:12.200Z,16.17
2022-07-30T10:45:19.637Z,16.19
2022-07-30T10:48:23.243Z,16.14
2022-07-30T10:51:46.591Z,16.24
2022-07-30T10:54:54.819Z,16.28
2022-07-30T10:58:00.162Z,16.27
2022-07-30T11:01:02.953Z,16.21
2022-07-30T11:04:20.329Z,16.15
2022-07-30T11:07:31.636Z,16.05
2022-07-30T11:10:40.627Z,15.96
2022-07-30T11:13:55.345Z,16.00
2022-07-30T11:17:01.919Z,15.89
2022-07-30T11:20:12.372Z,16.00
2022-07-30T11:23:39.163Z,15.99
2022-07-30T11:26:53.468Z,15.98
2022-07-30T11:29:56.430Z,16.00
2022-07-30T11:33:32.103Z,16.14
2022-07-30T11:36:36.831Z,16.11
2022-07-30T11:40:08.015Z,15.97
2022-07-30T11:43:34.689Z,16.13
2022-07-30T11:46:49.597Z,16.15
2022-07-30T11:49:52.693Z,16.26
2022-07-30T11:52:57.734Z,16.11
2022-07-30T11:56:02.444Z,16.00
2022-07-30T11:59:08.317Z,16.09
2022-07-30T12:02:11.044Z,16.08
2022-07-30T12:05:13.847Z,16.11
2022-07-30T12:08:33.466Z,16.13
2022-07-30T12:11:39.121Z,16.20
2022-07-30T12:14:43.233Z,16.34
2022-07-30T12:17:47.085Z,16.28
2022-07-30T12:20:54.942Z,16.31
2022-07-30T12:24:02.607Z,16.20
2022-07-30T12:27:06.391Z,16.30
2022-07-30T12:30:11.361Z,16.27
2022-07-30T12:33:15.282Z,16.21
2022-07-30T12:36:30.712Z,16.14
2022-07-30T12:39:33.469Z,16.21
2022-07-30T12:42:36.335Z,16.23
2022-07-30T12:45:51.791Z,16.24
2022-07-30T12:49:07.628Z,16.26
2022-07-30T12:52:28.465Z,16.42
2022-07-30T12:55:33.850Z,16.51
2022-07-30T12:58:37.704Z,16.47
2022-07-30T13:01:42.637Z,16.47
2022-07-30T13:05:00.166Z,16.46
2022-07-30T13:08:14.460Z,16.55
2022-07-30T13:11:17.998Z,16.58
2022-07-30T13:14:23.640Z,16.57
2022-07-30T13:17:33.868Z,16.40
2022-07-30T13:20:38.940Z,16.53
2022-07-30T13:23:42.891Z,16.49
2022-07-30T13:26:45.617Z,16.47
2022-07-30T13:29:48.366Z,16.59
2022-07-30T13:32:52.405Z,16.56
2022-07-30T13:35:55.272Z,16.73
2022-07-30T13:38:57.986Z,16.81
2022-07-30T13:42:00.708Z,16.84
2022-07-30T13:45:03.550Z,16.94
2022-07-30T13:48:07.854Z,16.93
2022-07-30T13:51:10.681Z,16.90
2022-07-30T13:54:13.900Z,16.90
2022-07-30T13:57:16.719Z,16.99
2022-07-30T14:00:19.559Z,16.93
2022-07-30T14:03:23.657Z,16.94
2022-07-30T14:06:26.347Z,17.00
2022-07-30T14:09:29.161Z,17.07
2022-07-30T14:12:31.930Z,17.06
2022-07-30T14:15:35.470Z,17.01
2022-07-30T14:18:40.027Z,16.99
2022-07-30T14:21:42.845Z,17.08
2022-07-30T14:24:48.634Z,17.08
2022-07-30T14:27:51.768Z,17.05
2022-07-30T14:30:54.808Z,17.15
2022-07-30T14:33:58.917Z,17.19
2022-07-30T14:37:01.894Z,17.15
2022-07-30T14:40:05.744Z,17.13
2022-07-30T14:43:08.463Z,17.20
2022-07-30T14:46:11.116Z,17.10
2022-07-30T14:49:16.012Z,17.15
2022-07-30T14:52:18.893Z,17.14
2022-07-30T14:55:21.711Z,17.14
2022-07-30T14:58:24.694Z,17.21
2022-07-30T15:01:27.427Z,17.32
2022-07-30T15:04:31.699Z,17.31
2022-07-30T15:07:34.698Z,17.33
2022-07-30T15:10:38.061Z,17.43
2022-07-30T15:13:49.978Z,17.42
2022-07-30T15:16:53.434Z,17.40
2022-07-30T15:19:57.536Z,17.44
2022-07-30T15:23:00.363Z,17.48
2022-07-30T15:26:03.035Z,17.41
2022-07-30T15:29:08.275Z,17.50
2022-07-30T15:32:13.194Z,17.46
2022-07-30T15:35:17.364Z,17.44
2022-07-30T15:38:20.161Z,17.51
2022-07-30T15:41:22.881Z,17.57
2022-07-30T15:44:25.991Z,17.47
2022-07-30T15:47:29.517Z,17.47
2022-07-30T15:50:33.748Z,17.56
2022-07-30T15:53:36.522Z,17.61
2022-07-30T15:56:39.205Z,17.66
2022-07-30T15:59:42.160Z,17.65
2022-07-30T16:02:44.885Z,17.66
2022-07-30T16:05:52.459Z,17.69
2022-07-30T16:08:55.538Z,17.70
2022-07-30T16:11:59.372Z,17.64
2022-07-30T16:15:02.310Z,17.66
2022-07-30T16:18:06.278Z,17.66
2022-07-30T16:21:10.684Z,17.64
2022-07-30T16:24:13.389Z,17.71
2022-07-30T16:27:16.123Z,17.70
2022-07-30T16:30:18.898Z,17.72
2022-07-30T16:33:21.769Z,17.73
2022-07-30T16:36:25.973Z,17.76
2022-07-30T16:39:28.636Z,17.76
2022-07-30T16:42:31.337Z,17.70
2022-07-30T16:45:34.208Z,17.68
2022-07-30T16:48:36.932Z,17.70
2022-07-30T16:51:42.807Z,17.72
2022-07-30T16:54:45.537Z,17.69
2022-07-30T16:57:48.267Z,17.73
2022-07-30T17:00:51.081Z,17.74
2022-07-30T17:03:53.826Z,17.76
2022-07-30T17:06:57.881Z,17.77
2022-07-30T17:10:00.568Z,17.73
2022-07-30T17:13:03.416Z,17.78
2022-07-30T17:16:07.327Z,17.77
2022-07-30T17:19:10.113Z,17.72
2022-07-30T17:22:14.177Z,17.77
2022-07-30T17:25:16.992Z,17.76
2022-07-30T17:28:26.835Z,17.73
2022-07-30T17:31:30.004Z,17.76
2022-07-30T17:34:32.834Z,17.76
2022-07-30T17:37:37.039Z,17.71
2022-07-30T17:40:39.823Z,17.77
2022-07-30T17:43:42.593Z,17.73
2022-07-30T17:46:45.383Z,17.73
2022-07-30T17:49:48.337Z,17.76
2022-07-30T17:52:52.500Z,17.71
2022-07-30T17:55:57.413Z,17.73
2022-07-30T17:59:00.885Z,17.72
2022-07-30T18:02:04.717Z,17.71
2022-07-30T18:05:08.889Z,17.74
2022-07-30T18:08:12.992Z,17.71
2022-07-30T18:11:15.883Z,17.80
2022-07-30T18:14:18.721Z,17.81
2022-07-30T18:17:21.470Z,17.88
2022-07-30T18:20:24.447Z,17.85
2022-07-30T18:23:34.611Z,17.78
2022-07-30T18:26:38.660Z,17.69
2022-07-30T18:29:41.899Z,17.77
2022-07-30T18:32:44.900Z,17.81
2022-07-30T18:35:47.701Z,17.83
2022-07-30T18:38:51.925Z,17.89
2022-07-30T18:41:54.694Z,17.77
2022-07-30T18:44:57.728Z,17.83
2022-07-30T18:48:00.484Z,17.89
2022-07-30T18:51:03.978Z,17.90
2022-07-30T18:54:08.261Z,17.89
2022-07-30T18:57:14.336Z,17.87
2022-07-30T19:00:32.757Z,17.83
2022-07-30T19:03:38.517Z,17.70
2022-07-30T19:06:41.286Z,17.78
2022-07-30T19:09:46.129Z,17.78
2022-07-30T19:12:48.879Z,17.73
2022-07-30T19:15:51.985Z,17.65
2022-07-30T19:18:54.927Z,17.71
2022-07-30T19:21:58.022Z,17.71
2022-07-30T19:25:02.091Z,17.51
2022-07-30T19:28:06.142Z,17.36
2022-07-30T19:31:08.974Z,17.41
2022-07-30T19:34:12.068Z,17.46
2022-07-30T19:37:14.768Z,17.42
2022-07-30T19:40:19.626Z,17.29
2022-07-30T19:43:24.309Z,17.31
2022-07-30T19:46:27.620Z,17.26
2022-07-30T19:49:32.441Z,17.08
2022-07-30T19:52:37.686Z,16.96
2022-07-30T19:55:42.324Z,16.81
2022-07-30T19:58:45.059Z,16.85
2022-07-30T20:01:51.870Z,16.96
2022-07-30T20:04:56.092Z,16.90
2022-07-30T20:07:58.875Z,16.84
2022-07-30T20:11:06.045Z,16.77
2022-07-30T20:14:08.733Z,16.75
2022-07-30T20:17:11.608Z,16.74
2022-07-30T20:20:14.704Z,16.53
2022-07-30T20:23:17.521Z,16.62
2022-07-30T20:26:25.061Z,16.39
2022-07-30T20:29:31.756Z,16.15
2022-07-30T20:32:34.550Z,16.39
2022-07-30T20:35:37.470Z,16.38
2022-07-30T20:38:44.358Z,16.31
2022-07-30T20:41:48.547Z,16.08
2022-07-30T20:44:56.745Z,16.17
2022-07-30T20:47:59.462Z,16.12
2022-07-30T20:51:06.414Z,15.78
2022-07-30T20:54:12.223Z,15.79
2022-07-30T20:57:16.261Z,15.83
2022-07-30T21:00:33.927Z,15.55
2022-07-30T21:03:37.862Z,15.63
2022-07-30T21:06:44.316Z,15.86
2022-07-30T21:09:51.885Z,15.73
2022-07-30T21:12:58.748Z,15.56
2022-07-30T21:16:16.010Z,15.56
2022-07-30T21:19:19.356Z,15.57
2022-07-30T21:22:25.451Z,15.52
2022-07-30T21:25:33.156Z,15.55
2022-07-30T21:28:37.437Z,15.57
2022-07-30T21:32:01.680Z,15.55
2022-07-30T21:35:08.241Z,15.52
2022-07-30T21:38:11.337Z,15.56
2022-07-30T21:41:15.279Z,15.53
2022-07-30T21:44:19.447Z,15.59
2022-07-30T21:47:22.843Z,15.48
2022-07-30T21:50:25.999Z,15.28
2022-07-30T21:53:44.675Z,15.28
2022-07-30T21:56:51.609Z,15.10
2022-07-30T21:59:55.795Z,15.10
2022-07-30T22:02:58.472Z,15.21
2022-07-30T22:06:02.728Z,15.15
2022-07-30T22:09:19.219Z,15.00
2022-07-30T22:12:31.225Z,14.97
2022-07-30T22:15:35.445Z,14.90
2022-07-30T22:18:38.164Z,14.78
2022-07-30T22:21:41.878Z,14.70
2022-07-30T22:24:44.598Z,14.80
2022-07-30T22:27:55.918Z,14.61
2022-07-30T22:31:01.239Z,14.70
2022-07-30T22:34:11.203Z,14.82
2022-07-30T22:37:17.339Z,14.82
2022-07-30T22:40:24.746Z,14.84
2022-07-30T22:43:35.503Z,14.78
2022-07-30T22:46:45.118Z,14.57
2022-07-30T22:49:59.186Z,14.77
2022-07-30T22:53:23.279Z,14.84
2022-07-30T22:56:25.367Z,14.83
2022-07-30T22:59:29.162Z,14.83
2022-07-30T23:02:52.390Z,14.77
2022-07-30T23:05:56.586Z,14.71
2022-07-30T23:08:59.717Z,14.63
2022-07-30T23:12:02.881Z,14.58
2022-07-30T23:15:07.489Z,14.55
2022-07-30T23:18:11.531Z,14.41
2022-07-30T23:21:15.025Z,14.48
2022-07-30T23:24:17.850Z,14.53
2022-07-30T23:27:21.049Z,14.42
2022-07-30T23:30:24.565Z,14.42
2022-07-30T23:33:34.343Z,14.47
2022-07-30T23:36:38.004Z,14.54
2022-07-30T23:39:40.717Z,14.52
2022-07-30T23:42:43.380Z,14.51
2022-07-30T23:45:46.486Z,14.43
2022-07-30T23:48:50.574Z,14.38
2022-07-30T23:51:53.323Z,14.34
2022-07-30T23:54:56.155Z,14.33
2022-07-30T23:58:00.104Z,14.43
